sensor_id;sensor_type;location;lat;lon;timestamp;P1;P2;P0
48155;PMS5003;35568;48.104;11.782;2024-03-08T00:02:12;17;16;
48155;PMS5003;35568;48.104;11.782;2024-03-08T00:04:39;13;12;
48155;PMS5003;35568;48.104;11.782;2024-03-08T00:07:07;13;13;
48155;PMS5003;35568;48.104;11.782;2024-03-08T00:09:34;13;13;
48155;PMS5003;35568;48.104;11.782;2024-03-08T00:12:02;14;13;
48155;PMS5003;35568;48.104;11.782;2024-03-08T00:14:28;13;13;
48155;PMS5003;35568;48.104;11.782;2024-03-08T00:16:55;17;14;
48155;PMS5003;35568;48.104;11.782;2024-03-08T00:19:22;16;14;
48155;PMS5003;35568;48.104;11.782;2024-03-08T00:21:49;16;15;
48155;PMS5003;35568;48.104;11.782;2024-03-08T00:24:16;13;12;
48155;PMS5003;35568;48.104;11.782;2024-03-08T00:26:44;13;13;
48155;PMS5003;35568;48.104;11.782;2024-03-08T00:29:11;15;15;
48155;PMS5003;35568;48.104;11.782;2024-03-08T00:31:39;12;12;
48155;PMS5003;35568;48.104;11.782;2024-03-08T00:34:06;17;16;
48155;PMS5003;35568;48.104;11.782;2024-03-08T00:36:33;18;15;
48155;PMS5003;35568;48.104;11.782;2024-03-08T00:39:00;20;18;
48155;PMS5003;35568;48.104;11.782;2024-03-08T00:41:28;15;14;
48155;PMS5003;35568;48.104;11.782;2024-03-08T00:43:55;18;17;
48155;PMS5003;35568;48.104;11.782;2024-03-08T00:46:22;20;18;
48155;PMS5003;35568;48.104;11.782;2024-03-08T00:48:49;14;13;
48155;PMS5003;35568;48.104;11.782;2024-03-08T00:51:16;15;14;
48155;PMS5003;35568;48.104;11.782;2024-03-08T00:53:43;14;14;
48155;PMS5003;35568;48.104;11.782;2024-03-08T00:56:10;14;14;
48155;PMS5003;35568;48.104;11.782;2024-03-08T00:58:37;17;15;
48155;PMS5003;35568;48.104;11.782;2024-03-08T01:01:05;19;17;
48155;PMS5003;35568;48.104;11.782;2024-03-08T01:03:32;17;16;
48155;PMS5003;35568;48.104;11.782;2024-03-08T01:06:00;16;15;
48155;PMS5003;35568;48.104;11.782;2024-03-08T01:08:27;17;16;
48155;PMS5003;35568;48.104;11.782;2024-03-08T01:10:54;15;14;
48155;PMS5003;35568;48.104;11.782;2024-03-08T01:13:21;15;14;
48155;PMS5003;35568;48.104;11.782;2024-03-08T01:15:48;15;15;
48155;PMS5003;35568;48.104;11.782;2024-03-08T01:18:16;17;15;
48155;PMS5003;35568;48.104;11.782;2024-03-08T01:20:42;17;15;
48155;PMS5003;35568;48.104;11.782;2024-03-08T01:23:10;18;16;
48155;PMS5003;35568;48.104;11.782;2024-03-08T01:25:37;13;13;
48155;PMS5003;35568;48.104;11.782;2024-03-08T01:28:05;10;10;
48155;PMS5003;35568;48.104;11.782;2024-03-08T01:30:32;16;15;
48155;PMS5003;35568;48.104;11.782;2024-03-08T01:32:59;18;16;
48155;PMS5003;35568;48.104;11.782;2024-03-08T01:35:27;14;13;
48155;PMS5003;35568;48.104;11.782;2024-03-08T01:37:54;15;15;
48155;PMS5003;35568;48.104;11.782;2024-03-08T01:40:21;17;16;
48155;PMS5003;35568;48.104;11.782;2024-03-08T01:42:48;16;15;
48155;PMS5003;35568;48.104;11.782;2024-03-08T01:45:15;17;16;
48155;PMS5003;35568;48.104;11.782;2024-03-08T01:47:42;17;16;
48155;PMS5003;35568;48.104;11.782;2024-03-08T01:50:09;16;15;
48155;PMS5003;35568;48.104;11.782;2024-03-08T01:52:36;15;15;
48155;PMS5003;35568;48.104;11.782;2024-03-08T01:55:04;19;16;
48155;PMS5003;35568;48.104;11.782;2024-03-08T01:57:32;15;15;
48155;PMS5003;35568;48.104;11.782;2024-03-08T02:00:00;16;16;
48155;PMS5003;35568;48.104;11.782;2024-03-08T02:02:27;20;17;
48155;PMS5003;35568;48.104;11.782;2024-03-08T02:04:57;20;18;
48155;PMS5003;35568;48.104;11.782;2024-03-08T02:07:24;16;16;
48155;PMS5003;35568;48.104;11.782;2024-03-08T02:09:51;20;17;
48155;PMS5003;35568;48.104;11.782;2024-03-08T02:12:18;19;19;
48155;PMS5003;35568;48.104;11.782;2024-03-08T02:14:47;16;16;
48155;PMS5003;35568;48.104;11.782;2024-03-08T02:17:14;16;16;
48155;PMS5003;35568;48.104;11.782;2024-03-08T02:19:41;17;15;
48155;PMS5003;35568;48.104;11.782;2024-03-08T02:22:09;17;16;
48155;PMS5003;35568;48.104;11.782;2024-03-08T02:24:36;18;16;
48155;PMS5003;35568;48.104;11.782;2024-03-08T02:27:04;18;17;
48155;PMS5003;35568;48.104;11.782;2024-03-08T02:29:32;15;14;
48155;PMS5003;35568;48.104;11.782;2024-03-08T02:32:00;14;14;
48155;PMS5003;35568;48.104;11.782;2024-03-08T02:34:27;17;16;
48155;PMS5003;35568;48.104;11.782;2024-03-08T02:36:54;19;17;
48155;PMS5003;35568;48.104;11.782;2024-03-08T02:39:21;18;15;
48155;PMS5003;35568;48.104;11.782;2024-03-08T02:41:48;17;16;
48155;PMS5003;35568;48.104;11.782;2024-03-08T02:44:15;20;18;
48155;PMS5003;35568;48.104;11.782;2024-03-08T02:46:43;16;15;
48155;PMS5003;35568;48.104;11.782;2024-03-08T02:49:10;18;17;
48155;PMS5003;35568;48.104;11.782;2024-03-08T02:51:37;19;18;
48155;PMS5003;35568;48.104;11.782;2024-03-08T02:54:04;18;16;
48155;PMS5003;35568;48.104;11.782;2024-03-08T02:56:31;17;16;
48155;PMS5003;35568;48.104;11.782;2024-03-08T02:58:58;18;17;
48155;PMS5003;35568;48.104;11.782;2024-03-08T03:01:25;17;16;
48155;PMS5003;35568;48.104;11.782;2024-03-08T03:03:52;12;12;
48155;PMS5003;35568;48.104;11.782;2024-03-08T03:06:19;19;18;
48155;PMS5003;35568;48.104;11.782;2024-03-08T03:08:46;25;22;
48155;PMS5003;35568;48.104;11.782;2024-03-08T03:11:14;24;22;
48155;PMS5003;35568;48.104;11.782;2024-03-08T03:13:41;17;17;
48155;PMS5003;35568;48.104;11.782;2024-03-08T03:16:08;17;17;
48155;PMS5003;35568;48.104;11.782;2024-03-08T03:18:35;18;17;
48155;PMS5003;35568;48.104;11.782;2024-03-08T03:21:03;23;19;
48155;PMS5003;35568;48.104;11.782;2024-03-08T03:23:30;16;16;
48155;PMS5003;35568;48.104;11.782;2024-03-08T03:25:56;18;18;
48155;PMS5003;35568;48.104;11.782;2024-03-08T03:28:24;23;17;
48155;PMS5003;35568;48.104;11.782;2024-03-08T03:30:51;20;19;
48155;PMS5003;35568;48.104;11.782;2024-03-08T03:33:18;17;16;
48155;PMS5003;35568;48.104;11.782;2024-03-08T03:35:46;18;16;
48155;PMS5003;35568;48.104;11.782;2024-03-08T03:38:13;23;20;
48155;PMS5003;35568;48.104;11.782;2024-03-08T03:40:40;18;17;
48155;PMS5003;35568;48.104;11.782;2024-03-08T03:43:07;18;18;
48155;PMS5003;35568;48.104;11.782;2024-03-08T03:45:35;23;20;
48155;PMS5003;35568;48.104;11.782;2024-03-08T03:48:02;27;25;
48155;PMS5003;35568;48.104;11.782;2024-03-08T03:50:31;19;19;
48155;PMS5003;35568;48.104;11.782;2024-03-08T03:52:59;22;19;
48155;PMS5003;35568;48.104;11.782;2024-03-08T03:55:26;16;15;
48155;PMS5003;35568;48.104;11.782;2024-03-08T03:57:53;19;18;
48155;PMS5003;35568;48.104;11.782;2024-03-08T04:03:00;21;21;
48155;PMS5003;35568;48.104;11.782;2024-03-08T04:05:27;22;22;
48155;PMS5003;35568;48.104;11.782;2024-03-08T04:07:55;19;17;
48155;PMS5003;35568;48.104;11.782;2024-03-08T04:10:22;18;17;
48155;PMS5003;35568;48.104;11.782;2024-03-08T04:12:49;23;21;
48155;PMS5003;35568;48.104;11.782;2024-03-08T04:15:16;18;18;
48155;PMS5003;35568;48.104;11.782;2024-03-08T04:17:44;21;19;
48155;PMS5003;35568;48.104;11.782;2024-03-08T04:20:11;22;19;
48155;PMS5003;35568;48.104;11.782;2024-03-08T04:22:38;22;19;
48155;PMS5003;35568;48.104;11.782;2024-03-08T04:25:06;28;24;
48155;PMS5003;35568;48.104;11.782;2024-03-08T04:27:35;22;22;
48155;PMS5003;35568;48.104;11.782;2024-03-08T04:30:02;26;23;
48155;PMS5003;35568;48.104;11.782;2024-03-08T04:32:31;18;18;
48155;PMS5003;35568;48.104;11.782;2024-03-08T04:34:58;22;19;
48155;PMS5003;35568;48.104;11.782;2024-03-08T04:37:25;24;24;
48155;PMS5003;35568;48.104;11.782;2024-03-08T04:39:52;21;21;
48155;PMS5003;35568;48.104;11.782;2024-03-08T04:42:20;19;18;
48155;PMS5003;35568;48.104;11.782;2024-03-08T04:44:47;22;19;
48155;PMS5003;35568;48.104;11.782;2024-03-08T04:47:15;23;21;
48155;PMS5003;35568;48.104;11.782;2024-03-08T04:49:42;21;19;
48155;PMS5003;35568;48.104;11.782;2024-03-08T04:52:09;28;24;
48155;PMS5003;35568;48.104;11.782;2024-03-08T04:54:36;19;19;
48155;PMS5003;35568;48.104;11.782;2024-03-08T04:57:03;23;19;
48155;PMS5003;35568;48.104;11.782;2024-03-08T04:59:30;22;22;
48155;PMS5003;35568;48.104;11.782;2024-03-08T05:01:57;18;17;
48155;PMS5003;35568;48.104;11.782;2024-03-08T05:04:24;19;19;
48155;PMS5003;35568;48.104;11.782;2024-03-08T05:06:51;18;18;
48155;PMS5003;35568;48.104;11.782;2024-03-08T05:09:18;24;21;
48155;PMS5003;35568;48.104;11.782;2024-03-08T05:11:45;23;22;
48155;PMS5003;35568;48.104;11.782;2024-03-08T05:14:13;21;21;
48155;PMS5003;35568;48.104;11.782;2024-03-08T05:16:41;25;24;
48155;PMS5003;35568;48.104;11.782;2024-03-08T05:19:09;25;23;
48155;PMS5003;35568;48.104;11.782;2024-03-08T05:21:36;24;22;
48155;PMS5003;35568;48.104;11.782;2024-03-08T05:24:03;24;23;
48155;PMS5003;35568;48.104;11.782;2024-03-08T05:26:30;21;20;
48155;PMS5003;35568;48.104;11.782;2024-03-08T05:28:57;18;17;
48155;PMS5003;35568;48.104;11.782;2024-03-08T05:31:24;16;16;
48155;PMS5003;35568;48.104;11.782;2024-03-08T05:33:51;24;20;
48155;PMS5003;35568;48.104;11.782;2024-03-08T05:36:19;18;18;
48155;PMS5003;35568;48.104;11.782;2024-03-08T05:38:46;27;24;
48155;PMS5003;35568;48.104;11.782;2024-03-08T05:41:14;20;18;
48155;PMS5003;35568;48.104;11.782;2024-03-08T05:43:42;25;25;
48155;PMS5003;35568;48.104;11.782;2024-03-08T05:46:08;24;20;
48155;PMS5003;35568;48.104;11.782;2024-03-08T05:48:36;23;21;
48155;PMS5003;35568;48.104;11.782;2024-03-08T05:51:03;21;21;
48155;PMS5003;35568;48.104;11.782;2024-03-08T05:53:30;22;19;
48155;PMS5003;35568;48.104;11.782;2024-03-08T05:55:57;20;19;
48155;PMS5003;35568;48.104;11.782;2024-03-08T05:58:24;17;15;
48155;PMS5003;35568;48.104;11.782;2024-03-08T06:00:51;21;20;
48155;PMS5003;35568;48.104;11.782;2024-03-08T06:03:18;24;20;
48155;PMS5003;35568;48.104;11.782;2024-03-08T06:05:46;24;20;
48155;PMS5003;35568;48.104;11.782;2024-03-08T06:08:14;19;18;
48155;PMS5003;35568;48.104;11.782;2024-03-08T06:10:40;20;19;
48155;PMS5003;35568;48.104;11.782;2024-03-08T06:13:08;20;18;
48155;PMS5003;35568;48.104;11.782;2024-03-08T06:15:35;24;22;
48155;PMS5003;35568;48.104;11.782;2024-03-08T06:18:02;26;25;
48155;PMS5003;35568;48.104;11.782;2024-03-08T06:20:30;22;21;
48155;PMS5003;35568;48.104;11.782;2024-03-08T06:22:57;26;24;
48155;PMS5003;35568;48.104;11.782;2024-03-08T06:25:24;26;24;
48155;PMS5003;35568;48.104;11.782;2024-03-08T06:27:51;21;20;
48155;PMS5003;35568;48.104;11.782;2024-03-08T06:30:18;21;20;
48155;PMS5003;35568;48.104;11.782;2024-03-08T06:32:45;23;20;
48155;PMS5003;35568;48.104;11.782;2024-03-08T06:35:12;21;19;
48155;PMS5003;35568;48.104;11.782;2024-03-08T06:37:39;20;20;
48155;PMS5003;35568;48.104;11.782;2024-03-08T06:40:06;25;22;
48155;PMS5003;35568;48.104;11.782;2024-03-08T06:42:34;23;23;
48155;PMS5003;35568;48.104;11.782;2024-03-08T06:45:01;21;19;
48155;PMS5003;35568;48.104;11.782;2024-03-08T06:47:28;22;21;
48155;PMS5003;35568;48.104;11.782;2024-03-08T06:49:56;25;23;
48155;PMS5003;35568;48.104;11.782;2024-03-08T06:52:23;21;20;
48155;PMS5003;35568;48.104;11.782;2024-03-08T06:54:50;21;21;
48155;PMS5003;35568;48.104;11.782;2024-03-08T06:57:18;21;21;
48155;PMS5003;35568;48.104;11.782;2024-03-08T06:59:45;20;20;
48155;PMS5003;35568;48.104;11.782;2024-03-08T07:02:12;23;20;
48155;PMS5003;35568;48.104;11.782;2024-03-08T07:04:39;18;18;
48155;PMS5003;35568;48.104;11.782;2024-03-08T07:07:07;22;21;
48155;PMS5003;35568;48.104;11.782;2024-03-08T07:09:34;23;23;
48155;PMS5003;35568;48.104;11.782;2024-03-08T07:12:02;25;22;
48155;PMS5003;35568;48.104;11.782;2024-03-08T07:14:29;25;23;
48155;PMS5003;35568;48.104;11.782;2024-03-08T07:16:56;19;19;
48155;PMS5003;35568;48.104;11.782;2024-03-08T07:19:23;21;20;
48155;PMS5003;35568;48.104;11.782;2024-03-08T07:21:49;23;22;
48155;PMS5003;35568;48.104;11.782;2024-03-08T07:24:16;23;21;
48155;PMS5003;35568;48.104;11.782;2024-03-08T07:26:44;21;21;
48155;PMS5003;35568;48.104;11.782;2024-03-08T07:29:11;22;19;
48155;PMS5003;35568;48.104;11.782;2024-03-08T07:31:38;29;25;
48155;PMS5003;35568;48.104;11.782;2024-03-08T07:34:05;25;21;
48155;PMS5003;35568;48.104;11.782;2024-03-08T07:36:33;22;21;
48155;PMS5003;35568;48.104;11.782;2024-03-08T07:39:01;25;23;
48155;PMS5003;35568;48.104;11.782;2024-03-08T07:41:27;20;18;
48155;PMS5003;35568;48.104;11.782;2024-03-08T07:43:55;22;20;
48155;PMS5003;35568;48.104;11.782;2024-03-08T07:46:22;24;24;
48155;PMS5003;35568;48.104;11.782;2024-03-08T07:48:49;24;21;
48155;PMS5003;35568;48.104;11.782;2024-03-08T07:51:16;20;20;
48155;PMS5003;35568;48.104;11.782;2024-03-08T07:53:43;20;16;
48155;PMS5003;35568;48.104;11.782;2024-03-08T07:56:10;25;25;
48155;PMS5003;35568;48.104;11.782;2024-03-08T07:58:37;21;21;
48155;PMS5003;35568;48.104;11.782;2024-03-08T08:01:04;18;18;
48155;PMS5003;35568;48.104;11.782;2024-03-08T08:03:31;20;19;
48155;PMS5003;35568;48.104;11.782;2024-03-08T08:05:58;20;18;
48155;PMS5003;35568;48.104;11.782;2024-03-08T08:08:25;23;22;
48155;PMS5003;35568;48.104;11.782;2024-03-08T08:10:52;20;18;
48155;PMS5003;35568;48.104;11.782;2024-03-08T08:13:19;24;20;
48155;PMS5003;35568;48.104;11.782;2024-03-08T08:15:46;15;15;
48155;PMS5003;35568;48.104;11.782;2024-03-08T08:18:13;23;21;
48155;PMS5003;35568;48.104;11.782;2024-03-08T08:20:40;20;18;
48155;PMS5003;35568;48.104;11.782;2024-03-08T08:23:06;20;18;
48155;PMS5003;35568;48.104;11.782;2024-03-08T08:25:34;22;21;
48155;PMS5003;35568;48.104;11.782;2024-03-08T08:28:01;17;17;
48155;PMS5003;35568;48.104;11.782;2024-03-08T08:30:28;19;18;
48155;PMS5003;35568;48.104;11.782;2024-03-08T08:32:55;17;16;
48155;PMS5003;35568;48.104;11.782;2024-03-08T08:35:23;23;20;
48155;PMS5003;35568;48.104;11.782;2024-03-08T08:37:50;21;20;
48155;PMS5003;35568;48.104;11.782;2024-03-08T08:40:17;20;19;
48155;PMS5003;35568;48.104;11.782;2024-03-08T08:42:44;20;18;
48155;PMS5003;35568;48.104;11.782;2024-03-08T08:45:11;23;22;
48155;PMS5003;35568;48.104;11.782;2024-03-08T08:47:39;23;22;
48155;PMS5003;35568;48.104;11.782;2024-03-08T08:50:06;19;18;
48155;PMS5003;35568;48.104;11.782;2024-03-08T08:52:34;22;20;
48155;PMS5003;35568;48.104;11.782;2024-03-08T08:55:01;18;18;
48155;PMS5003;35568;48.104;11.782;2024-03-08T08:57:28;23;21;
48155;PMS5003;35568;48.104;11.782;2024-03-08T08:59:55;20;18;
48155;PMS5003;35568;48.104;11.782;2024-03-08T09:02:22;17;17;
48155;PMS5003;35568;48.104;11.782;2024-03-08T09:04:49;19;17;
48155;PMS5003;35568;48.104;11.782;2024-03-08T09:07:16;33;31;
48155;PMS5003;35568;48.104;11.782;2024-03-08T09:09:43;20;19;
48155;PMS5003;35568;48.104;11.782;2024-03-08T09:12:10;18;17;
48155;PMS5003;35568;48.104;11.782;2024-03-08T09:14:37;21;19;
48155;PMS5003;35568;48.104;11.782;2024-03-08T09:17:04;24;24;
48155;PMS5003;35568;48.104;11.782;2024-03-08T09:19:31;18;17;
48155;PMS5003;35568;48.104;11.782;2024-03-08T09:21:59;19;18;
48155;PMS5003;35568;48.104;11.782;2024-03-08T09:24:26;20;17;
48155;PMS5003;35568;48.104;11.782;2024-03-08T09:26:53;23;21;
48155;PMS5003;35568;48.104;11.782;2024-03-08T09:29:20;22;21;
48155;PMS5003;35568;48.104;11.782;2024-03-08T09:31:47;20;19;
48155;PMS5003;35568;48.104;11.782;2024-03-08T09:34:14;17;17;
48155;PMS5003;35568;48.104;11.782;2024-03-08T09:36:41;24;20;
48155;PMS5003;35568;48.104;11.782;2024-03-08T09:39:08;22;21;
48155;PMS5003;35568;48.104;11.782;2024-03-08T09:41:35;19;17;
48155;PMS5003;35568;48.104;11.782;2024-03-08T09:44:03;17;17;
48155;PMS5003;35568;48.104;11.782;2024-03-08T09:46:31;22;20;
48155;PMS5003;35568;48.104;11.782;2024-03-08T09:48:58;21;20;
48155;PMS5003;35568;48.104;11.782;2024-03-08T09:51:27;16;16;
48155;PMS5003;35568;48.104;11.782;2024-03-08T09:53:55;17;17;
48155;PMS5003;35568;48.104;11.782;2024-03-08T09:56:22;16;16;
48155;PMS5003;35568;48.104;11.782;2024-03-08T09:58:50;18;17;
48155;PMS5003;35568;48.104;11.782;2024-03-08T10:01:18;23;21;
48155;PMS5003;35568;48.104;11.782;2024-03-08T10:03:46;15;14;
48155;PMS5003;35568;48.104;11.782;2024-03-08T10:06:14;20;19;
48155;PMS5003;35568;48.104;11.782;2024-03-08T10:08:41;14;12;
48155;PMS5003;35568;48.104;11.782;2024-03-08T10:11:08;16;15;
48155;PMS5003;35568;48.104;11.782;2024-03-08T10:13:35;17;15;
48155;PMS5003;35568;48.104;11.782;2024-03-08T10:16:03;14;14;
48155;PMS5003;35568;48.104;11.782;2024-03-08T10:18:30;15;14;
48155;PMS5003;35568;48.104;11.782;2024-03-08T10:21:02;15;14;
48155;PMS5003;35568;48.104;11.782;2024-03-08T10:23:31;14;13;
48155;PMS5003;35568;48.104;11.782;2024-03-08T10:26:09;17;16;
48155;PMS5003;35568;48.104;11.782;2024-03-08T10:28:37;14;13;
48155;PMS5003;35568;48.104;11.782;2024-03-08T10:31:04;16;13;
48155;PMS5003;35568;48.104;11.782;2024-03-08T10:33:31;15;13;
48155;PMS5003;35568;48.104;11.782;2024-03-08T10:35:59;14;14;
48155;PMS5003;35568;48.104;11.782;2024-03-08T10:38:27;16;16;
48155;PMS5003;35568;48.104;11.782;2024-03-08T10:40:58;16;14;
48155;PMS5003;35568;48.104;11.782;2024-03-08T10:43:26;14;14;
48155;PMS5003;35568;48.104;11.782;2024-03-08T10:45:59;13;13;
48155;PMS5003;35568;48.104;11.782;2024-03-08T10:48:37;17;17;
48155;PMS5003;35568;48.104;11.782;2024-03-08T10:51:09;16;15;
48155;PMS5003;35568;48.104;11.782;2024-03-08T10:53:38;15;14;
48155;PMS5003;35568;48.104;11.782;2024-03-08T10:56:06;16;13;
48155;PMS5003;35568;48.104;11.782;2024-03-08T10:58:33;13;12;
48155;PMS5003;35568;48.104;11.782;2024-03-08T11:01:03;15;14;
48155;PMS5003;35568;48.104;11.782;2024-03-08T11:03:46;14;13;
48155;PMS5003;35568;48.104;11.782;2024-03-08T11:06:15;15;14;
48155;PMS5003;35568;48.104;11.782;2024-03-08T11:08:44;15;14;
48155;PMS5003;35568;48.104;11.782;2024-03-08T11:11:28;12;11;
48155;PMS5003;35568;48.104;11.782;2024-03-08T11:13:56;14;13;
48155;PMS5003;35568;48.104;11.782;2024-03-08T11:16:40;19;17;
48155;PMS5003;35568;48.104;11.782;2024-03-08T11:19:26;18;15;
48155;PMS5003;35568;48.104;11.782;2024-03-08T11:21:57;12;12;
48155;PMS5003;35568;48.104;11.782;2024-03-08T11:24:25;15;13;
48155;PMS5003;35568;48.104;11.782;2024-03-08T11:26:54;14;14;
48155;PMS5003;35568;48.104;11.782;2024-03-08T11:29:39;14;14;
48155;PMS5003;35568;48.104;11.782;2024-03-08T11:32:07;15;15;
48155;PMS5003;35568;48.104;11.782;2024-03-08T11:34:35;16;14;
48155;PMS5003;35568;48.104;11.782;2024-03-08T11:37:03;15;15;
48155;PMS5003;35568;48.104;11.782;2024-03-08T11:39:31;15;15;
48155;PMS5003;35568;48.104;11.782;2024-03-08T11:41:58;19;19;
48155;PMS5003;35568;48.104;11.782;2024-03-08T11:44:26;14;13;
48155;PMS5003;35568;48.104;11.782;2024-03-08T11:46:54;16;16;
48155;PMS5003;35568;48.104;11.782;2024-03-08T11:49:21;18;17;
48155;PMS5003;35568;48.104;11.782;2024-03-08T11:51:49;17;16;
48155;PMS5003;35568;48.104;11.782;2024-03-08T11:54:18;18;17;
48155;PMS5003;35568;48.104;11.782;2024-03-08T11:56:46;15;14;
48155;PMS5003;35568;48.104;11.782;2024-03-08T11:59:14;14;12;
48155;PMS5003;35568;48.104;11.782;2024-03-08T12:01:41;13;12;
48155;PMS5003;35568;48.104;11.782;2024-03-08T12:04:11;16;14;
48155;PMS5003;35568;48.104;11.782;2024-03-08T12:06:39;15;14;
48155;PMS5003;35568;48.104;11.782;2024-03-08T12:09:08;17;16;
48155;PMS5003;35568;48.104;11.782;2024-03-08T12:11:35;17;16;
48155;PMS5003;35568;48.104;11.782;2024-03-08T12:14:03;15;15;
48155;PMS5003;35568;48.104;11.782;2024-03-08T12:16:30;19;17;
48155;PMS5003;35568;48.104;11.782;2024-03-08T12:18:58;15;15;
48155;PMS5003;35568;48.104;11.782;2024-03-08T12:21:26;14;14;
48155;PMS5003;35568;48.104;11.782;2024-03-08T12:24:03;15;13;
48155;PMS5003;35568;48.104;11.782;2024-03-08T12:26:31;16;15;
48155;PMS5003;35568;48.104;11.782;2024-03-08T12:29:14;15;14;
48155;PMS5003;35568;48.104;11.782;2024-03-08T12:31:42;16;16;
48155;PMS5003;35568;48.104;11.782;2024-03-08T12:34:09;13;12;
48155;PMS5003;35568;48.104;11.782;2024-03-08T12:36:36;13;13;
48155;PMS5003;35568;48.104;11.782;2024-03-08T12:39:05;15;15;
48155;PMS5003;35568;48.104;11.782;2024-03-08T12:41:38;19;15;
48155;PMS5003;35568;48.104;11.782;2024-03-08T12:44:06;14;13;
48155;PMS5003;35568;48.104;11.782;2024-03-08T12:46:33;15;15;
48155;PMS5003;35568;48.104;11.782;2024-03-08T12:49:00;13;13;
48155;PMS5003;35568;48.104;11.782;2024-03-08T12:51:28;14;13;
48155;PMS5003;35568;48.104;11.782;2024-03-08T12:53:55;12;11;
48155;PMS5003;35568;48.104;11.782;2024-03-08T12:56:28;14;14;
48155;PMS5003;35568;48.104;11.782;2024-03-08T12:58:56;11;11;
48155;PMS5003;35568;48.104;11.782;2024-03-08T13:01:23;16;12;
48155;PMS5003;35568;48.104;11.782;2024-03-08T13:03:50;9;9;
48155;PMS5003;35568;48.104;11.782;2024-03-08T13:06:17;11;10;
48155;PMS5003;35568;48.104;11.782;2024-03-08T13:08:43;12;12;
48155;PMS5003;35568;48.104;11.782;2024-03-08T13:11:10;14;13;
48155;PMS5003;35568;48.104;11.782;2024-03-08T13:13:37;11;11;
48155;PMS5003;35568;48.104;11.782;2024-03-08T13:16:04;15;12;
48155;PMS5003;35568;48.104;11.782;2024-03-08T13:18:31;14;13;
48155;PMS5003;35568;48.104;11.782;2024-03-08T13:20:58;16;16;
48155;PMS5003;35568;48.104;11.782;2024-03-08T13:23:26;15;13;
48155;PMS5003;35568;48.104;11.782;2024-03-08T13:25:53;13;12;
48155;PMS5003;35568;48.104;11.782;2024-03-08T13:28:20;11;11;
48155;PMS5003;35568;48.104;11.782;2024-03-08T13:30:47;19;17;
48155;PMS5003;35568;48.104;11.782;2024-03-08T13:33:13;15;15;
48155;PMS5003;35568;48.104;11.782;2024-03-08T13:35:40;17;15;
48155;PMS5003;35568;48.104;11.782;2024-03-08T13:38:08;11;10;
48155;PMS5003;35568;48.104;11.782;2024-03-08T13:40:34;14;14;
48155;PMS5003;35568;48.104;11.782;2024-03-08T13:43:02;16;14;
48155;PMS5003;35568;48.104;11.782;2024-03-08T13:45:29;17;15;
48155;PMS5003;35568;48.104;11.782;2024-03-08T13:47:56;16;15;
48155;PMS5003;35568;48.104;11.782;2024-03-08T13:50:23;16;14;
48155;PMS5003;35568;48.104;11.782;2024-03-08T13:52:51;13;12;
48155;PMS5003;35568;48.104;11.782;2024-03-08T13:55:18;19;19;
48155;PMS5003;35568;48.104;11.782;2024-03-08T13:57:45;13;13;
48155;PMS5003;35568;48.104;11.782;2024-03-08T14:00:12;16;16;
48155;PMS5003;35568;48.104;11.782;2024-03-08T14:02:40;15;12;
48155;PMS5003;35568;48.104;11.782;2024-03-08T14:05:08;19;17;
48155;PMS5003;35568;48.104;11.782;2024-03-08T14:07:34;11;11;
48155;PMS5003;35568;48.104;11.782;2024-03-08T14:10:02;14;14;
48155;PMS5003;35568;48.104;11.782;2024-03-08T14:12:29;12;12;
48155;PMS5003;35568;48.104;11.782;2024-03-08T14:14:56;16;15;
48155;PMS5003;35568;48.104;11.782;2024-03-08T14:17:24;19;18;
48155;PMS5003;35568;48.104;11.782;2024-03-08T14:19:51;15;15;
48155;PMS5003;35568;48.104;11.782;2024-03-08T14:22:18;15;13;
48155;PMS5003;35568;48.104;11.782;2024-03-08T14:24:45;17;17;
48155;PMS5003;35568;48.104;11.782;2024-03-08T14:27:13;15;14;
48155;PMS5003;35568;48.104;11.782;2024-03-08T14:29:40;18;16;
48155;PMS5003;35568;48.104;11.782;2024-03-08T14:32:07;21;16;
48155;PMS5003;35568;48.104;11.782;2024-03-08T14:34:35;18;17;
48155;PMS5003;35568;48.104;11.782;2024-03-08T14:37:02;19;19;
48155;PMS5003;35568;48.104;11.782;2024-03-08T14:39:29;15;14;
48155;PMS5003;35568;48.104;11.782;2024-03-08T14:41:56;16;14;
48155;PMS5003;35568;48.104;11.782;2024-03-08T14:44:23;16;16;
48155;PMS5003;35568;48.104;11.782;2024-03-08T14:46:51;16;15;
48155;PMS5003;35568;48.104;11.782;2024-03-08T14:49:18;16;15;
48155;PMS5003;35568;48.104;11.782;2024-03-08T14:51:45;16;15;
48155;PMS5003;35568;48.104;11.782;2024-03-08T14:54:13;18;16;
48155;PMS5003;35568;48.104;11.782;2024-03-08T14:56:40;18;17;
48155;PMS5003;35568;48.104;11.782;2024-03-08T14:59:07;14;13;
48155;PMS5003;35568;48.104;11.782;2024-03-08T15:01:35;12;12;
48155;PMS5003;35568;48.104;11.782;2024-03-08T15:04:02;17;17;
48155;PMS5003;35568;48.104;11.782;2024-03-08T15:06:28;20;18;
48155;PMS5003;35568;48.104;11.782;2024-03-08T15:08:55;16;14;
48155;PMS5003;35568;48.104;11.782;2024-03-08T15:11:23;19;18;
48155;PMS5003;35568;48.104;11.782;2024-03-08T15:13:49;16;15;
48155;PMS5003;35568;48.104;11.782;2024-03-08T15:16:16;16;15;
48155;PMS5003;35568;48.104;11.782;2024-03-08T15:18:43;14;14;
48155;PMS5003;35568;48.104;11.782;2024-03-08T15:21:11;19;17;
48155;PMS5003;35568;48.104;11.782;2024-03-08T15:23:38;16;14;
48155;PMS5003;35568;48.104;11.782;2024-03-08T15:26:06;17;17;
48155;PMS5003;35568;48.104;11.782;2024-03-08T15:28:33;21;19;
48155;PMS5003;35568;48.104;11.782;2024-03-08T15:31:01;15;14;
48155;PMS5003;35568;48.104;11.782;2024-03-08T15:33:29;17;16;
48155;PMS5003;35568;48.104;11.782;2024-03-08T15:35:56;15;14;
48155;PMS5003;35568;48.104;11.782;2024-03-08T15:38:23;16;13;
48155;PMS5003;35568;48.104;11.782;2024-03-08T15:40:51;18;16;
48155;PMS5003;35568;48.104;11.782;2024-03-08T15:43:18;14;13;
48155;PMS5003;35568;48.104;11.782;2024-03-08T15:45:45;14;14;
48155;PMS5003;35568;48.104;11.782;2024-03-08T15:48:12;13;13;
48155;PMS5003;35568;48.104;11.782;2024-03-08T15:50:39;17;16;
48155;PMS5003;35568;48.104;11.782;2024-03-08T15:53:07;12;12;
48155;PMS5003;35568;48.104;11.782;2024-03-08T15:55:34;13;12;
48155;PMS5003;35568;48.104;11.782;2024-03-08T15:58:01;13;13;
48155;PMS5003;35568;48.104;11.782;2024-03-08T16:00:28;12;11;
48155;PMS5003;35568;48.104;11.782;2024-03-08T16:02:55;17;15;
48155;PMS5003;35568;48.104;11.782;2024-03-08T16:05:22;14;14;
48155;PMS5003;35568;48.104;11.782;2024-03-08T16:07:50;15;14;